sensor_id;sensor_type;location;lat;lon;timestamp;P1;durP1;ratioP1;P2;durP2;ratioP2
51838;SDS011;37886;53.174;6.368;2023-08-31T00:02:13;622.88;;;566.85;;
51838;SDS011;37886;53.174;6.368;2023-08-31T00:04:38;633.88;;;577.63;;
51838;SDS011;37886;53.174;6.368;2023-08-31T00:07:04;614.95;;;559.65;;
51838;SDS011;37886;53.174;6.368;2023-08-31T00:09:30;629.08;;;572.92;;
51838;SDS011;37886;53.174;6.368;2023-08-31T00:11:56;532.00;;;485.65;;
51838;SDS011;37886;53.174;6.368;2023-08-31T00:14:22;587.33;;;535.30;;
51838;SDS011;37886;53.174;6.368;2023-08-31T00:16:48;554.72;;;505.52;;
51838;SDS011;37886;53.174;6.368;2023-08-31T00:19:15;589.03;;;536.95;;
51838;SDS011;37886;53.174;6.368;2023-08-31T00:21:41;582.75;;;530.67;;
51838;SDS011;37886;53.174;6.368;2023-08-31T00:24:07;541.22;;;492.15;;
51838;SDS011;37886;53.174;6.368;2023-08-31T00:26:35;488.60;;;444.13;;
51838;SDS011;37886;53.174;6.368;2023-08-31T00:29:05;597.85;;;543.83;;
51838;SDS011;37886;53.174;6.368;2023-08-31T00:31:32;598.22;;;545.17;;
51838;SDS011;37886;53.174;6.368;2023-08-31T00:33:59;543.55;;;495.50;;
51838;SDS011;37886;53.174;6.368;2023-08-31T00:36:28;475.63;;;432.80;;
51838;SDS011;37886;53.174;6.368;2023-08-31T00:38:54;368.45;;;335.02;;
51838;SDS011;37886;53.174;6.368;2023-08-31T00:41:19;538.72;;;491.45;;
51838;SDS011;37886;53.174;6.368;2023-08-31T00:43:47;486.70;;;443.17;;
51838;SDS011;37886;53.174;6.368;2023-08-31T00:46:12;527.88;;;480.23;;
51838;SDS011;37886;53.174;6.368;2023-08-31T00:48:40;482.60;;;439.52;;
51838;SDS011;37886;53.174;6.368;2023-08-31T00:51:07;489.52;;;446.48;;
51838;SDS011;37886;53.174;6.368;2023-08-31T00:53:33;416.67;;;380.42;;
51838;SDS011;37886;53.174;6.368;2023-08-31T00:56:00;557.22;;;508.23;;
51838;SDS011;37886;53.174;6.368;2023-08-31T00:58:26;485.58;;;442.27;;
51838;SDS011;37886;53.174;6.368;2023-08-31T01:03:35;469.55;;;428.52;;
51838;SDS011;37886;53.174;6.368;2023-08-31T01:11:18;466.70;;;426.23;;
51838;SDS011;37886;53.174;6.368;2023-08-31T01:14:14;522.85;;;478.08;;
51838;SDS011;37886;53.174;6.368;2023-08-31T01:16:44;354.48;;;323.58;;
51838;SDS011;37886;53.174;6.368;2023-08-31T01:19:24;463.27;;;422.85;;
51838;SDS011;37886;53.174;6.368;2023-08-31T01:21:53;365.92;;;334.25;;
51838;SDS011;37886;53.174;6.368;2023-08-31T01:24:22;347.85;;;316.85;;
51838;SDS011;37886;53.174;6.368;2023-08-31T01:26:49;571.95;;;521.72;;
51838;SDS011;37886;53.174;6.368;2023-08-31T01:29:17;476.13;;;434.02;;
51838;SDS011;37886;53.174;6.368;2023-08-31T01:31:44;504.75;;;461.15;;
51838;SDS011;37886;53.174;6.368;2023-08-31T01:34:12;486.35;;;443.25;;
51838;SDS011;37886;53.174;6.368;2023-08-31T01:36:39;483.70;;;441.15;;
51838;SDS011;37886;53.174;6.368;2023-08-31T01:41:44;357.42;;;327.08;;
51838;SDS011;37886;53.174;6.368;2023-08-31T01:44:20;269.98;;;247.82;;
51838;SDS011;37886;53.174;6.368;2023-08-31T01:46:50;453.88;;;414.60;;
51838;SDS011;37886;53.174;6.368;2023-08-31T01:49:17;525.35;;;480.33;;
51838;SDS011;37886;53.174;6.368;2023-08-31T01:51:44;453.90;;;414.55;;
51838;SDS011;37886;53.174;6.368;2023-08-31T01:54:10;556.47;;;508.65;;
51838;SDS011;37886;53.174;6.368;2023-08-31T01:56:35;439.25;;;400.38;;
51838;SDS011;37886;53.174;6.368;2023-08-31T01:59:01;504.88;;;461.27;;
51838;SDS011;37886;53.174;6.368;2023-08-31T02:01:27;494.48;;;451.75;;
51838;SDS011;37886;53.174;6.368;2023-08-31T02:03:54;544.53;;;496.02;;
51838;SDS011;37886;53.174;6.368;2023-08-31T02:06:20;469.33;;;427.35;;
51838;SDS011;37886;53.174;6.368;2023-08-31T02:08:45;539.58;;;492.92;;
51838;SDS011;37886;53.174;6.368;2023-08-31T02:11:12;558.85;;;511.25;;
51838;SDS011;37886;53.174;6.368;2023-08-31T02:13:38;588.42;;;537.83;;
51838;SDS011;37886;53.174;6.368;2023-08-31T02:16:05;507.75;;;463.27;;
51838;SDS011;37886;53.174;6.368;2023-08-31T02:18:30;598.92;;;547.70;;
51838;SDS011;37886;53.174;6.368;2023-08-31T02:20:56;558.58;;;510.48;;
51838;SDS011;37886;53.174;6.368;2023-08-31T02:23:22;513.13;;;468.70;;
51838;SDS011;37886;53.174;6.368;2023-08-31T02:25:48;632.35;;;577.15;;
51838;SDS011;37886;53.174;6.368;2023-08-31T02:28:14;604.65;;;551.97;;
51838;SDS011;37886;53.174;6.368;2023-08-31T02:30:43;550.67;;;502.58;;
51838;SDS011;37886;53.174;6.368;2023-08-31T02:33:09;454.25;;;413.90;;
51838;SDS011;37886;53.174;6.368;2023-08-31T02:35:35;459.75;;;419.67;;
51838;SDS011;37886;53.174;6.368;2023-08-31T02:38:01;396.27;;;361.52;;
51838;SDS011;37886;53.174;6.368;2023-08-31T02:40:27;492.13;;;448.92;;
51838;SDS011;37886;53.174;6.368;2023-08-31T02:42:53;460.85;;;420.17;;
51838;SDS011;37886;53.174;6.368;2023-08-31T02:45:18;368.45;;;334.15;;
51838;SDS011;37886;53.174;6.368;2023-08-31T02:47:44;465.02;;;424.65;;
51838;SDS011;37886;53.174;6.368;2023-08-31T02:50:10;440.00;;;401.75;;
51838;SDS011;37886;53.174;6.368;2023-08-31T02:52:35;652.20;;;596.58;;
51838;SDS011;37886;53.174;6.368;2023-08-31T02:55:01;548.45;;;500.77;;
51838;SDS011;37886;53.174;6.368;2023-08-31T02:57:27;473.98;;;432.35;;
51838;SDS011;37886;53.174;6.368;2023-08-31T02:59:52;626.65;;;571.42;;
51838;SDS011;37886;53.174;6.368;2023-08-31T03:02:18;642.35;;;587.45;;
51838;SDS011;37886;53.174;6.368;2023-08-31T03:04:44;596.78;;;545.67;;
51838;SDS011;37886;53.174;6.368;2023-08-31T03:07:10;563.50;;;514.90;;
51838;SDS011;37886;53.174;6.368;2023-08-31T03:09:39;456.15;;;416.55;;
51838;SDS011;37886;53.174;6.368;2023-08-31T03:12:05;497.98;;;455.45;;
51838;SDS011;37886;53.174;6.368;2023-08-31T03:14:30;482.95;;;441.30;;
51838;SDS011;37886;53.174;6.368;2023-08-31T03:16:56;522.97;;;477.40;;
51838;SDS011;37886;53.174;6.368;2023-08-31T03:19:22;607.92;;;556.60;;
51838;SDS011;37886;53.174;6.368;2023-08-31T03:21:48;655.53;;;599.72;;
51838;SDS011;37886;53.174;6.368;2023-08-31T03:24:14;657.15;;;600.30;;
51838;SDS011;37886;53.174;6.368;2023-08-31T03:26:40;716.42;;;652.53;;
51838;SDS011;37886;53.174;6.368;2023-08-31T03:29:06;747.42;;;682.13;;
51838;SDS011;37886;53.174;6.368;2023-08-31T03:31:31;641.70;;;586.90;;
51838;SDS011;37886;53.174;6.368;2023-08-31T03:33:57;589.92;;;539.45;;
51838;SDS011;37886;53.174;6.368;2023-08-31T03:36:23;619.85;;;567.60;;
51838;SDS011;37886;53.174;6.368;2023-08-31T03:38:49;539.88;;;492.80;;
51838;SDS011;37886;53.174;6.368;2023-08-31T03:41:14;640.28;;;586.28;;
51838;SDS011;37886;53.174;6.368;2023-08-31T03:43:40;454.98;;;415.83;;
51838;SDS011;37886;53.174;6.368;2023-08-31T03:46:06;664.53;;;608.83;;
51838;SDS011;37886;53.174;6.368;2023-08-31T03:48:32;522.47;;;477.25;;
51838;SDS011;37886;53.174;6.368;2023-08-31T03:50:57;426.02;;;389.30;;
51838;SDS011;37886;53.174;6.368;2023-08-31T03:53:23;560.85;;;512.92;;
51838;SDS011;37886;53.174;6.368;2023-08-31T03:55:49;667.45;;;610.92;;
51838;SDS011;37886;53.174;6.368;2023-08-31T03:58:15;606.17;;;554.10;;
51838;SDS011;37886;53.174;6.368;2023-08-31T04:00:41;597.67;;;547.20;;
51838;SDS011;37886;53.174;6.368;2023-08-31T04:03:07;583.75;;;533.70;;
51838;SDS011;37886;53.174;6.368;2023-08-31T04:05:34;689.45;;;628.63;;
51838;SDS011;37886;53.174;6.368;2023-08-31T04:08:00;712.38;;;650.00;;
51838;SDS011;37886;53.174;6.368;2023-08-31T04:10:27;676.58;;;617.70;;
51838;SDS011;37886;53.174;6.368;2023-08-31T04:12:56;676.67;;;618.70;;
51838;SDS011;37886;53.174;6.368;2023-08-31T04:15:22;654.80;;;596.83;;
51838;SDS011;37886;53.174;6.368;2023-08-31T04:17:48;563.20;;;513.65;;
51838;SDS011;37886;53.174;6.368;2023-08-31T04:20:15;639.47;;;583.70;;
51838;SDS011;37886;53.174;6.368;2023-08-31T04:22:40;419.70;;;382.17;;
51838;SDS011;37886;53.174;6.368;2023-08-31T04:25:06;535.30;;;488.40;;
51838;SDS011;37886;53.174;6.368;2023-08-31T04:27:32;570.10;;;520.70;;
51838;SDS011;37886;53.174;6.368;2023-08-31T04:30:01;633.53;;;578.45;;
51838;SDS011;37886;53.174;6.368;2023-08-31T04:32:27;611.63;;;558.08;;
51838;SDS011;37886;53.174;6.368;2023-08-31T04:34:53;713.97;;;650.45;;
51838;SDS011;37886;53.174;6.368;2023-08-31T04:37:19;592.80;;;542.33;;
51838;SDS011;37886;53.174;6.368;2023-08-31T04:39:46;596.80;;;544.63;;
51838;SDS011;37886;53.174;6.368;2023-08-31T04:42:11;651.10;;;595.00;;
51838;SDS011;37886;53.174;6.368;2023-08-31T04:44:37;617.65;;;563.75;;
51838;SDS011;37886;53.174;6.368;2023-08-31T04:47:03;507.85;;;464.23;;
51838;SDS011;37886;53.174;6.368;2023-08-31T04:49:29;648.55;;;591.83;;
51838;SDS011;37886;53.174;6.368;2023-08-31T04:51:56;688.13;;;629.28;;
51838;SDS011;37886;53.174;6.368;2023-08-31T04:54:21;625.35;;;571.28;;
51838;SDS011;37886;53.174;6.368;2023-08-31T04:56:47;733.22;;;664.50;;
51838;SDS011;37886;53.174;6.368;2023-08-31T04:59:13;691.17;;;623.15;;
51838;SDS011;37886;53.174;6.368;2023-08-31T05:01:38;659.25;;;591.30;;
51838;SDS011;37886;53.174;6.368;2023-08-31T05:04:04;686.13;;;613.63;;
51838;SDS011;37886;53.174;6.368;2023-08-31T05:06:30;648.42;;;581.85;;
51838;SDS011;37886;53.174;6.368;2023-08-31T05:08:56;679.15;;;608.88;;
51838;SDS011;37886;53.174;6.368;2023-08-31T05:11:22;720.90;;;644.85;;
51838;SDS011;37886;53.174;6.368;2023-08-31T05:13:49;693.58;;;618.08;;
51838;SDS011;37886;53.174;6.368;2023-08-31T05:16:14;702.22;;;626.95;;
51838;SDS011;37886;53.174;6.368;2023-08-31T05:18:40;775.65;;;691.42;;
51838;SDS011;37886;53.174;6.368;2023-08-31T05:21:06;684.13;;;610.58;;
51838;SDS011;37886;53.174;6.368;2023-08-31T05:23:32;770.70;;;685.60;;
51838;SDS011;37886;53.174;6.368;2023-08-31T05:25:58;752.67;;;668.75;;
51838;SDS011;37886;53.174;6.368;2023-08-31T05:28:24;700.65;;;625.17;;
51838;SDS011;37886;53.174;6.368;2023-08-31T05:30:50;719.13;;;641.50;;
51838;SDS011;37886;53.174;6.368;2023-08-31T05:33:19;728.03;;;649.67;;
51838;SDS011;37886;53.174;6.368;2023-08-31T05:35:47;735.42;;;654.78;;
51838;SDS011;37886;53.174;6.368;2023-08-31T05:38:13;703.35;;;627.47;;
51838;SDS011;37886;53.174;6.368;2023-08-31T05:40:39;710.38;;;632.75;;
51838;SDS011;37886;53.174;6.368;2023-08-31T05:43:10;735.25;;;657.00;;
51838;SDS011;37886;53.174;6.368;2023-08-31T05:45:36;815.45;;;725.20;;
51838;SDS011;37886;53.174;6.368;2023-08-31T05:48:02;762.20;;;677.47;;
51838;SDS011;37886;53.174;6.368;2023-08-31T05:50:28;989.95;;;865.03;;
51838;SDS011;37886;53.174;6.368;2023-08-31T05:52:55;746.97;;;667.40;;
51838;SDS011;37886;53.174;6.368;2023-08-31T05:55:20;787.47;;;701.10;;
51838;SDS011;37886;53.174;6.368;2023-08-31T05:57:46;652.75;;;581.45;;
51838;SDS011;37886;53.174;6.368;2023-08-31T06:00:12;637.25;;;567.60;;
51838;SDS011;37886;53.174;6.368;2023-08-31T06:02:38;611.60;;;544.78;;
51838;SDS011;37886;53.174;6.368;2023-08-31T06:05:04;868.25;;;772.58;;
51838;SDS011;37886;53.174;6.368;2023-08-31T06:07:31;594.70;;;529.28;;
51838;SDS011;37886;53.174;6.368;2023-08-31T06:09:57;637.35;;;568.28;;
51838;SDS011;37886;53.174;6.368;2023-08-31T06:12:22;680.65;;;607.33;;
51838;SDS011;37886;53.174;6.368;2023-08-31T06:14:48;588.50;;;525.70;;
51838;SDS011;37886;53.174;6.368;2023-08-31T06:17:14;966.65;;;863.67;;
51838;SDS011;37886;53.174;6.368;2023-08-31T06:19:40;594.15;;;533.92;;
51838;SDS011;37886;53.174;6.368;2023-08-31T06:22:06;631.60;;;564.63;;
51838;SDS011;37886;53.174;6.368;2023-08-31T06:24:32;624.40;;;559.97;;
51838;SDS011;37886;53.174;6.368;2023-08-31T06:26:59;595.58;;;531.97;;
51838;SDS011;37886;53.174;6.368;2023-08-31T06:29:25;722.55;;;647.92;;
51838;SDS011;37886;53.174;6.368;2023-08-31T06:31:51;936.22;;;840.22;;
51838;SDS011;37886;53.174;6.368;2023-08-31T06:34:17;801.13;;;720.67;;
51838;SDS011;37886;53.174;6.368;2023-08-31T06:36:44;843.17;;;758.85;;
51838;SDS011;37886;53.174;6.368;2023-08-31T06:39:10;755.30;;;680.60;;
51838;SDS011;37886;53.174;6.368;2023-08-31T06:41:35;649.50;;;587.65;;
51838;SDS011;37886;53.174;6.368;2023-08-31T06:44:02;534.63;;;481.30;;
51838;SDS011;37886;53.174;6.368;2023-08-31T06:46:27;909.70;;;827.80;;
51838;SDS011;37886;53.174;6.368;2023-08-31T06:48:54;907.50;;;824.78;;
51838;SDS011;37886;53.174;6.368;2023-08-31T06:51:20;892.60;;;807.70;;
51838;SDS011;37886;53.174;6.368;2023-08-31T06:53:45;557.22;;;503.63;;
51838;SDS011;37886;53.174;6.368;2023-08-31T06:56:11;595.65;;;536.30;;
51838;SDS011;37886;53.174;6.368;2023-08-31T06:58:37;438.90;;;396.20;;
51838;SDS011;37886;53.174;6.368;2023-08-31T07:01:05;700.47;;;632.35;;
51838;SDS011;37886;53.174;6.368;2023-08-31T07:03:31;450.83;;;407.08;;
51838;SDS011;37886;53.174;6.368;2023-08-31T07:05:57;871.38;;;791.63;;
51838;SDS011;37886;53.174;6.368;2023-08-31T07:08:22;706.38;;;637.35;;
51838;SDS011;37886;53.174;6.368;2023-08-31T07:10:51;443.80;;;400.13;;
51838;SDS011;37886;53.174;6.368;2023-08-31T07:13:17;888.88;;;806.67;;
51838;SDS011;37886;53.174;6.368;2023-08-31T07:15:43;819.03;;;742.28;;
51838;SDS011;37886;53.174;6.368;2023-08-31T07:18:08;896.20;;;816.40;;
51838;SDS011;37886;53.174;6.368;2023-08-31T07:20:34;520.47;;;470.48;;
51838;SDS011;37886;53.174;6.368;2023-08-31T07:23:00;490.73;;;444.55;;
51838;SDS011;37886;53.174;6.368;2023-08-31T07:25:25;816.80;;;739.15;;
51838;SDS011;37886;53.174;6.368;2023-08-31T07:27:52;894.33;;;813.58;;
51838;SDS011;37886;53.174;6.368;2023-08-31T07:30:18;893.72;;;814.10;;
51838;SDS011;37886;53.174;6.368;2023-08-31T07:32:44;847.92;;;771.08;;
51838;SDS011;37886;53.174;6.368;2023-08-31T07:35:09;585.03;;;533.30;;
51838;SDS011;37886;53.174;6.368;2023-08-31T07:37:35;875.13;;;799.58;;
51838;SDS011;37886;53.174;6.368;2023-08-31T07:40:02;687.80;;;626.88;;
51838;SDS011;37886;53.174;6.368;2023-08-31T07:42:33;537.83;;;490.27;;
51838;SDS011;37886;53.174;6.368;2023-08-31T07:44:59;853.28;;;780.95;;
51838;SDS011;37886;53.174;6.368;2023-08-31T07:47:25;870.42;;;795.90;;
51838;SDS011;37886;53.174;6.368;2023-08-31T07:49:50;671.40;;;611.35;;
51838;SDS011;37886;53.174;6.368;2023-08-31T07:52:16;892.88;;;818.72;;
51838;SDS011;37886;53.174;6.368;2023-08-31T07:54:42;856.33;;;785.72;;
51838;SDS011;37886;53.174;6.368;2023-08-31T07:57:07;878.22;;;803.72;;
51838;SDS011;37886;53.174;6.368;2023-08-31T07:59:33;502.38;;;460.42;;
51838;SDS011;37886;53.174;6.368;2023-08-31T08:01:59;498.20;;;455.52;;
51838;SDS011;37886;53.174;6.368;2023-08-31T08:04:24;429.52;;;394.75;;
51838;SDS011;37886;53.174;6.368;2023-08-31T08:06:52;410.35;;;374.83;;
51838;SDS011;37886;53.174;6.368;2023-08-31T08:09:17;796.42;;;731.78;;
51838;SDS011;37886;53.174;6.368;2023-08-31T08:11:43;702.67;;;642.42;;
51838;SDS011;37886;53.174;6.368;2023-08-31T08:14:09;782.85;;;716.85;;
51838;SDS011;37886;53.174;6.368;2023-08-31T08:16:34;714.22;;;651.85;;
51838;SDS011;37886;53.174;6.368;2023-08-31T08:19:00;758.60;;;697.92;;
51838;SDS011;37886;53.174;6.368;2023-08-31T08:21:26;691.85;;;635.13;;
51838;SDS011;37886;53.174;6.368;2023-08-31T08:23:52;695.42;;;639.13;;
51838;SDS011;37886;53.174;6.368;2023-08-31T08:26:18;766.25;;;704.15;;
51838;SDS011;37886;53.174;6.368;2023-08-31T08:28:43;696.58;;;640.50;;
51838;SDS011;37886;53.174;6.368;2023-08-31T08:31:09;790.30;;;724.15;;
51838;SDS011;37886;53.174;6.368;2023-08-31T08:33:35;708.03;;;648.75;;
51838;SDS011;37886;53.174;6.368;2023-08-31T08:36:01;647.95;;;590.42;;
51838;SDS011;37886;53.174;6.368;2023-08-31T08:38:27;735.00;;;677.33;;
51838;SDS011;37886;53.174;6.368;2023-08-31T08:40:53;277.20;;;255.60;;
51838;SDS011;37886;53.174;6.368;2023-08-31T08:43:21;185.90;;;171.32;;
51838;SDS011;37886;53.174;6.368;2023-08-31T08:45:50;574.95;;;531.15;;
51838;SDS011;37886;53.174;6.368;2023-08-31T08:48:16;580.88;;;536.85;;
51838;SDS011;37886;53.174;6.368;2023-08-31T08:50:43;749.40;;;679.83;;
51838;SDS011;37886;53.174;6.368;2023-08-31T08:53:10;785.90;;;714.42;;
51838;SDS011;37886;53.174;6.368;2023-08-31T08:55:38;747.55;;;683.17;;
51838;SDS011;37886;53.174;6.368;2023-08-31T08:58:05;696.10;;;644.50;;
51838;SDS011;37886;53.174;6.368;2023-08-31T09:00:32;567.33;;;523.95;;
51838;SDS011;37886;53.174;6.368;2023-08-31T09:02:59;824.13;;;755.65;;
51838;SDS011;37886;53.174;6.368;2023-08-31T09:05:30;633.80;;;579.20;;
51838;SDS011;37886;53.174;6.368;2023-08-31T09:08:07;619.25;;;565.88;;
51838;SDS011;37886;53.174;6.368;2023-08-31T09:10:41;380.42;;;352.27;;
51838;SDS011;37886;53.174;6.368;2023-08-31T09:13:12;452.92;;;417.35;;
51838;SDS011;37886;53.174;6.368;2023-08-31T09:18:17;511.98;;;474.27;;
51838;SDS011;37886;53.174;6.368;2023-08-31T09:23:17;529.03;;;487.92;;
51838;SDS011;37886;53.174;6.368;2023-08-31T09:28:11;534.58;;;494.17;;
51838;SDS011;37886;53.174;6.368;2023-08-31T09:30:38;635.25;;;582.30;;
51838;SDS011;37886;53.174;6.368;2023-08-31T09:33:06;532.85;;;493.73;;
51838;SDS011;37886;53.174;6.368;2023-08-31T09:35:34;480.65;;;443.83;;
51838;SDS011;37886;53.174;6.368;2023-08-31T09:38:20;570.83;;;527.28;;
51838;SDS011;37886;53.174;6.368;2023-08-31T09:40:46;754.15;;;684.90;;
51838;SDS011;37886;53.174;6.368;2023-08-31T09:43:12;790.50;;;719.70;;
51838;SDS011;37886;53.174;6.368;2023-08-31T09:45:46;801.15;;;728.30;;
51838;SDS011;37886;53.174;6.368;2023-08-31T09:48:13;457.02;;;413.73;;
51838;SDS011;37886;53.174;6.368;2023-08-31T09:50:40;393.10;;;367.20;;
51838;SDS011;37886;53.174;6.368;2023-08-31T09:53:11;343.10;;;317.40;;
51838;SDS011;37886;53.174;6.368;2023-08-31T09:55:38;192.32;;;178.93;;
51838;SDS011;37886;53.174;6.368;2023-08-31T09:58:05;256.98;;;237.23;;
51838;SDS011;37886;53.174;6.368;2023-08-31T10:00:34;599.78;;;555.40;;
51838;SDS011;37886;53.174;6.368;2023-08-31T10:03:04;759.72;;;694.08;;
51838;SDS011;37886;53.174;6.368;2023-08-31T10:05:30;430.88;;;397.60;;
51838;SDS011;37886;53.174;6.368;2023-08-31T10:07:58;625.22;;;580.25;;
51838;SDS011;37886;53.174;6.368;2023-08-31T10:10:24;542.58;;;503.10;;
51838;SDS011;37886;53.174;6.368;2023-08-31T10:12:51;526.95;;;486.92;;
51838;SDS011;37886;53.174;6.368;2023-08-31T10:15:18;526.83;;;484.70;;
51838;SDS011;37886;53.174;6.368;2023-08-31T10:17:44;431.75;;;394.38;;
51838;SDS011;37886;53.174;6.368;2023-08-31T10:20:15;453.88;;;418.90;;
51838;SDS011;37886;53.174;6.368;2023-08-31T10:22:42;535.72;;;494.27;;
51838;SDS011;37886;53.174;6.368;2023-08-31T10:25:08;553.92;;;511.13;;
51838;SDS011;37886;53.174;6.368;2023-08-31T10:27:38;605.00;;;560.08;;
51838;SDS011;37886;53.174;6.368;2023-08-31T10:38:17;618.65;;;574.47;;
51838;SDS011;37886;53.174;6.368;2023-08-31T10:43:28;559.38;;;519.30;;
51838;SDS011;37886;53.174;6.368;2023-08-31T10:46:14;569.33;;;527.53;;
51838;SDS011;37886;53.174;6.368;2023-08-31T10:51:36;273.77;;;249.20;;
51838;SDS011;37886;53.174;6.368;2023-08-31T10:54:06;477.08;;;437.60;;
51838;SDS011;37886;53.174;6.368;2023-08-31T10:56:32;475.00;;;441.20;;
51838;SDS011;37886;53.174;6.368;2023-08-31T10:58:59;432.58;;;400.55;;
51838;SDS011;37886;53.174;6.368;2023-08-31T11:04:21;332.63;;;305.00;;
51838;SDS011;37886;53.174;6.368;2023-08-31T11:06:47;531.08;;;493.35;;
51838;SDS011;37886;53.174;6.368;2023-08-31T11:09:18;341.67;;;315.77;;
51838;SDS011;37886;53.174;6.368;2023-08-31T11:11:47;345.48;;;320.40;;
51838;SDS011;37886;53.174;6.368;2023-08-31T11:14:15;437.27;;;402.58;;
51838;SDS011;37886;53.174;6.368;2023-08-31T11:16:41;482.73;;;447.15;;
51838;SDS011;37886;53.174;6.368;2023-08-31T11:19:08;444.85;;;414.38;;
51838;SDS011;37886;53.174;6.368;2023-08-31T11:21:36;472.05;;;439.25;;
51838;SDS011;37886;53.174;6.368;2023-08-31T11:24:02;447.48;;;416.27;;
51838;SDS011;37886;53.174;6.368;2023-08-31T11:26:29;582.78;;;540.33;;
51838;SDS011;37886;53.174;6.368;2023-08-31T11:28:57;545.28;;;505.55;;
51838;SDS011;37886;53.174;6.368;2023-08-31T11:31:23;499.65;;;463.58;;
51838;SDS011;37886;53.174;6.368;2023-08-31T11:33:49;357.17;;;330.00;;
51838;SDS011;37886;53.174;6.368;2023-08-31T11:36:15;439.00;;;405.73;;
51838;SDS011;37886;53.174;6.368;2023-08-31T11:38:43;457.95;;;421.15;;
51838;SDS011;37886;53.174;6.368;2023-08-31T11:41:09;684.33;;;628.00;;
51838;SDS011;37886;53.174;6.368;2023-08-31T11:43:35;608.38;;;558.25;;
51838;SDS011;37886;53.174;6.368;2023-08-31T11:46:02;830.65;;;756.95;;
51838;SDS011;37886;53.174;6.368;2023-08-31T11:48:29;863.17;;;786.42;;
51838;SDS011;37886;53.174;6.368;2023-08-31T11:50:56;779.40;;;710.25;;
51838;SDS011;37886;53.174;6.368;2023-08-31T11:53:23;730.88;;;669.22;;
51838;SDS011;37886;53.174;6.368;2023-08-31T11:55:50;548.28;;;505.85;;
51838;SDS011;37886;53.174;6.368;2023-08-31T11:58:16;571.33;;;528.97;;
51838;SDS011;37886;53.174;6.368;2023-08-31T12:00:42;734.78;;;672.70;;
51838;SDS011;37886;53.174;6.368;2023-08-31T12:03:09;653.50;;;597.17;;
51838;SDS011;37886;53.174;6.368;2023-08-31T12:05:47;341.92;;;315.10;;
51838;SDS011;37886;53.174;6.368;2023-08-31T12:08:14;594.53;;;547.38;;
51838;SDS011;37886;53.174;6.368;2023-08-31T12:10:41;48.45;;;45.40;;
51838;SDS011;37886;53.174;6.368;2023-08-31T12:13:10;230.40;;;216.50;;
51838;SDS011;37886;53.174;6.368;2023-08-31T12:15:39;239.00;;;224.93;;
51838;SDS011;37886;53.174;6.368;2023-08-31T12:18:11;119.18;;;111.65;;
51838;SDS011;37886;53.174;6.368;2023-08-31T12:20:44;132.02;;;124.03;;
51838;SDS011;37886;53.174;6.368;2023-08-31T12:25:50;43.63;;;40.92;;
51838;SDS011;37886;53.174;6.368;2023-08-31T12:28:17;46.15;;;43.30;;
51838;SDS011;37886;53.174;6.368;2023-08-31T12:30:50;45.83;;;43.00;;
51838;SDS011;37886;53.174;6.368;2023-08-31T12:33:19;133.32;;;124.28;;
51838;SDS011;37886;53.174;6.368;2023-08-31T12:35:46;245.57;;;228.60;;
51838;SDS011;37886;53.174;6.368;2023-08-31T12:38:12;82.28;;;76.85;;
51838;SDS011;37886;53.174;6.368;2023-08-31T12:40:39;56.10;;;52.17;;
51838;SDS011;37886;53.174;6.368;2023-08-31T12:43:05;83.43;;;77.60;;
51838;SDS011;37886;53.174;6.368;2023-08-31T12:45:31;131.63;;;123.45;;
51838;SDS011;37886;53.174;6.368;2023-08-31T12:47:58;120.65;;;113.38;;
51838;SDS011;37886;53.174;6.368;2023-08-31T12:50:24;99.28;;;92.88;;
51838;SDS011;37886;53.174;6.368;2023-08-31T12:52:50;80.18;;;75.28;;
51838;SDS011;37886;53.174;6.368;2023-08-31T12:55:16;76.13;;;71.13;;
51838;SDS011;37886;53.174;6.368;2023-08-31T12:57:43;137.85;;;128.75;;
51838;SDS011;37886;53.174;6.368;2023-08-31T13:00:09;146.38;;;137.20;;
51838;SDS011;37886;53.174;6.368;2023-08-31T13:02:39;274.10;;;253.03;;
51838;SDS011;37886;53.174;6.368;2023-08-31T13:05:06;131.18;;;122.40;;
51838;SDS011;37886;53.174;6.368;2023-08-31T13:07:33;99.47;;;93.18;;
51838;SDS011;37886;53.174;6.368;2023-08-31T13:10:01;325.70;;;304.38;;
51838;SDS011;37886;53.174;6.368;2023-08-31T13:12:32;695.75;;;641.03;;
51838;SDS011;37886;53.174;6.368;2023-08-31T13:14:58;597.33;;;551.15;;
51838;SDS011;37886;53.174;6.368;2023-08-31T13:17:24;539.08;;;497.70;;
51838;SDS011;37886;53.174;6.368;2023-08-31T13:19:55;592.30;;;545.22;;
51838;SDS011;37886;53.174;6.368;2023-08-31T13:22:22;395.60;;;366.92;;
51838;SDS011;37886;53.174;6.368;2023-08-31T13:24:48;289.27;;;271.55;;
51838;SDS011;37886;53.174;6.368;2023-08-31T13:27:14;388.63;;;364.02;;
51838;SDS011;37886;53.174;6.368;2023-08-31T13:29:41;415.80;;;388.92;;
51838;SDS011;37886;53.174;6.368;2023-08-31T13:32:07;450.85;;;419.63;;
51838;SDS011;37886;53.174;6.368;2023-08-31T13:34:33;424.52;;;393.58;;
51838;SDS011;37886;53.174;6.368;2023-08-31T13:36:59;409.98;;;383.02;;
51838;SDS011;37886;53.174;6.368;2023-08-31T13:39:28;417.35;;;388.10;;
51838;SDS011;37886;53.174;6.368;2023-08-31T13:41:55;403.20;;;376.50;;
51838;SDS011;37886;53.174;6.368;2023-08-31T13:44:21;562.58;;;523.15;;
51838;SDS011;37886;53.174;6.368;2023-08-31T13:46:47;402.83;;;377.00;;
51838;SDS011;37886;53.174;6.368;2023-08-31T13:49:13;700.20;;;644.05;;
51838;SDS011;37886;53.174;6.368;2023-08-31T13:51:40;600.25;;;553.60;;
51838;SDS011;37886;53.174;6.368;2023-08-31T13:54:06;687.33;;;633.00;;
51838;SDS011;37886;53.174;6.368;2023-08-31T13:56:35;402.38;;;375.60;;
51838;SDS011;37886;53.174;6.368;2023-08-31T13:59:00;366.08;;;342.52;;
51838;SDS011;37886;53.174;6.368;2023-08-31T14:01:26;359.90;;;337.02;;
51838;SDS011;37886;53.174;6.368;2023-08-31T14:03:52;576.55;;;534.03;;
51838;SDS011;37886;53.174;6.368;2023-08-31T14:06:18;620.63;;;571.72;;
51838;SDS011;37886;53.174;6.368;2023-08-31T14:08:44;642.55;;;587.65;;
51838;SDS011;37886;53.174;6.368;2023-08-31T14:11:09;524.38;;;483.60;;
51838;SDS011;37886;53.174;6.368;2023-08-31T14:13:35;638.85;;;588.42;;
51838;SDS011;37886;53.174;6.368;2023-08-31T14:16:01;699.92;;;647.60;;
51838;SDS011;37886;53.174;6.368;2023-08-31T14:18:27;749.55;;;691.83;;
51838;SDS011;37886;53.174;6.368;2023-08-31T14:20:57;586.97;;;543.70;;
51838;SDS011;37886;53.174;6.368;2023-08-31T14:23:26;637.08;;;582.45;;
51838;SDS011;37886;53.174;6.368;2023-08-31T14:25:52;549.28;;;509.75;;
51838;SDS011;37886;53.174;6.368;2023-08-31T14:28:18;695.65;;;639.88;;
51838;SDS011;37886;53.174;6.368;2023-08-31T14:30:43;575.10;;;527.47;;
51838;SDS011;37886;53.174;6.368;2023-08-31T14:33:09;825.90;;;760.33;;